Time;durP1;ratioP1;P1;durP2;ratioP2;P2;SDS_P1;SDS_P2;PMS_P1;PMS_P2;Temp;Humidity;BMP_temperature;BMP_pressure;BME280_temperature;BME280_humidity;BME280_pressure;Samples;Min_cycle;Max_cycle;Signal;HPM_P1;HPM_P2
2022/03/08 00:00:45;;;;;;;16.08;10.98;;;;;;;1.19;56.38;101745.03;5035683;28;20117;-84
2022/03/08 00:03:12;;;;;;;15.73;10.13;;;;;;;1.14;56.30;101746.97;5035740;28;20046;-84
2022/03/08 00:05:39;;;;;;;22.23;12.48;;;;;;;1.10;56.88;101742.84;5034994;28;20089;-84
2022/03/08 00:08:06;;;;;;;24.80;11.38;;;;;;;1.05;57.00;101739.63;5052435;23;20049;-82
2022/03/08 00:10:36;;;;;;;19.98;11.48;;;;;;;0.92;56.98;101726.47;5054883;28;20152;-84
2022/03/08 00:13:02;;;;;;;19.98;11.18;;;;;;;0.87;57.10;101724.09;5055358;28;20115;-84
2022/03/08 00:15:29;;;;;;;19.73;10.90;;;;;;;0.79;57.33;101720.19;5055748;28;20049;-84
2022/03/08 00:17:57;;;;;;;21.48;12.15;;;;;;;0.86;57.70;101725.00;5055883;28;20227;-83
2022/03/08 00:20:24;;;;;;;20.40;11.57;;;;;;;0.88;58.13;101724.94;5055711;28;20080;-83
2022/03/08 00:22:51;;;;;;;21.70;11.68;;;;;;;0.88;58.35;101723.19;5054861;28;20084;-81
2022/03/08 00:25:18;;;;;;;18.52;10.57;;;;;;;0.86;58.70;101714.69;5054860;28;20081;-82
2022/03/08 00:27:46;;;;;;;15.23;9.85;;;;;;;0.85;58.52;101718.19;5055793;28;20092;-81
2022/03/08 00:30:14;;;;;;;15.55;10.23;;;;;;;0.86;59.12;101717.28;5055283;28;20385;-82
2022/03/08 00:32:41;;;;;;;15.98;9.68;;;;;;;0.80;59.11;101727.84;5055275;28;20077;-82
2022/03/08 00:35:10;;;;;;;13.07;9.50;;;;;;;0.83;58.85;101720.00;5059092;28;20132;-84
2022/03/08 00:37:37;;;;;;;14.50;9.85;;;;;;;0.87;59.03;101713.81;5059119;28;20048;-83
2022/03/08 00:40:05;;;;;;;15.52;9.90;;;;;;;0.84;59.34;101721.66;5058820;28;20056;-82
2022/03/08 00:42:31;;;;;;;15.57;9.93;;;;;;;0.84;59.18;101716.50;5059596;28;20099;-81
2022/03/08 00:44:58;;;;;;;14.60;9.18;;;;;;;0.80;59.28;101712.38;5058652;28;20124;-82
2022/03/08 00:47:25;;;;;;;13.07;9.32;;;;;;;0.83;59.46;101709.69;5058962;28;20055;-81
2022/03/08 00:49:51;;;;;;;16.10;8.95;;;;;;;0.80;59.16;101714.97;5058249;28;20071;-81
2022/03/08 00:52:19;;;;;;;14.90;9.15;;;;;;;0.83;59.07;101714.00;5058731;28;20057;-83
2022/03/08 00:54:46;;;;;;;12.02;9.18;;;;;;;0.81;59.24;101711.50;5059049;28;20105;-82
2022/03/08 00:57:12;;;;;;;15.75;10.32;;;;;;;0.82;59.82;101708.00;5062919;28;20076;-83
2022/03/08 00:59:39;;;;;;;19.48;10.68;;;;;;;0.81;59.56;101708.91;5065430;28;20083;-83
2022/03/08 01:02:06;;;;;;;14.70;9.85;;;;;;;0.73;60.17;101703.25;5068496;28;20084;-85
2022/03/08 01:04:32;;;;;;;12.60;9.35;;;;;;;0.69;60.18;101704.28;5067330;28;20079;-85
2022/03/08 01:06:59;;;;;;;12.55;9.15;;;;;;;0.67;60.40;101713.81;5060713;28;20057;-82
2022/03/08 01:09:27;;;;;;;17.42;9.68;;;;;;;0.62;60.36;101703.72;5059094;28;20048;-83
2022/03/08 01:11:54;;;;;;;14.68;9.98;;;;;;;0.60;60.61;101707.25;5059715;28;20120;-82
2022/03/08 01:14:21;;;;;;;15.00;9.38;;;;;;;0.53;60.47;101698.94;5060022;28;20140;-83
2022/03/08 01:16:47;;;;;;;12.95;10.18;;;;;;;0.48;61.13;101710.34;5058602;28;20463;-83
2022/03/08 01:19:14;;;;;;;16.05;9.63;;;;;;;0.39;61.12;101706.44;5058617;28;20045;-82
2022/03/08 01:21:41;;;;;;;13.48;9.57;;;;;;;0.38;61.79;101711.66;5059104;28;20049;-82
2022/03/08 01:24:11;;;;;;;14.55;9.73;;;;;;;0.36;61.89;101710.88;5059017;28;20045;-84
2022/03/08 01:26:39;;;;;;;12.50;9.40;;;;;;;0.39;61.60;101714.19;5058905;28;20094;-82
2022/03/08 01:29:06;;;;;;;15.32;9.77;;;;;;;0.34;61.57;101700.66;5034568;28;20085;-82
2022/03/08 01:31:36;;;;;;;15.07;10.23;;;;;;;0.32;61.77;101695.56;5018753;28;20125;-84
2022/03/08 01:34:03;;;;;;;14.80;10.23;;;;;;;0.25;62.11;101688.16;5018688;28;20104;-83
2022/03/08 01:36:29;;;;;;;13.82;9.55;;;;;;;0.25;62.44;101689.00;5018436;28;20056;-84
2022/03/08 01:38:56;;;;;;;13.68;9.32;;;;;;;0.26;62.05;101700.97;5017672;28;20250;-85
2022/03/08 01:41:23;;;;;;;14.73;9.85;;;;;;;0.18;62.56;101692.72;5018163;28;20120;-82
2022/03/08 01:43:51;;;;;;;13.82;9.52;;;;;;;0.10;63.20;101693.94;5018223;28;20136;-84
2022/03/08 01:46:18;;;;;;;14.95;9.52;;;;;;;0.06;63.32;101700.09;5015972;28;20128;-82
2022/03/08 01:48:45;;;;;;;14.43;8.82;;;;;;;-0.11;63.50;101691.38;5019982;28;20149;-83
2022/03/08 01:51:12;;;;;;;16.27;10.02;;;;;;;-0.29;64.74;101693.81;5031984;28;20034;-83
2022/03/08 01:53:40;;;;;;;14.40;9.30;;;;;;;-0.26;64.65;101686.81;5031099;28;20050;-83
2022/03/08 01:56:08;;;;;;;12.95;9.40;;;;;;;-0.32;64.92;101683.66;5032961;28;20111;-84
2022/03/08 01:58:35;;;;;;;13.85;9.77;;;;;;;-0.31;64.30;101685.31;5027641;28;20085;-83
2022/03/08 02:01:03;;;;;;;14.05;9.30;;;;;;;-0.36;64.74;101688.91;5018386;28;20088;-84
2022/03/08 02:03:30;;;;;;;16.02;10.45;;;;;;;-0.44;65.16;101690.94;5018219;28;20077;-84
2022/03/08 02:05:57;;;;;;;18.77;10.55;;;;;;;-0.46;65.28;101690.16;5018963;28;20073;-84
2022/03/08 02:08:24;;;;;;;16.15;10.30;;;;;;;-0.62;66.01;101680.56;5016505;28;20433;-84
2022/03/08 02:10:52;;;;;;;16.63;10.15;;;;;;;-0.60;66.35;101681.34;5017972;28;20249;-83
2022/03/08 02:13:19;;;;;;;20.38;10.40;;;;;;;-0.60;66.21;101677.03;5015618;28;20050;-83
2022/03/08 02:15:48;;;;;;;16.15;10.02;;;;;;;-0.45;65.75;101676.41;5015643;28;20058;-84
2022/03/08 02:18:17;;;;;;;18.65;10.52;;;;;;;-0.37;65.27;101673.53;5015962;28;20088;-84
2022/03/08 02:20:44;;;;;;;16.88;10.60;;;;;;;-0.43;65.55;101671.22;5016936;28;20077;-84
2022/03/08 02:23:12;;;;;;;13.75;10.38;;;;;;;-0.48;65.25;101674.00;5017770;28;20137;-83
2022/03/08 02:25:38;;;;;;;13.75;9.98;;;;;;;-0.45;65.68;101658.41;5017175;28;20054;-81
2022/03/08 02:28:06;;;;;;;14.30;9.88;;;;;;;-0.38;64.78;101654.72;5015573;28;20137;-79
2022/03/08 02:30:33;;;;;;;14.95;9.45;;;;;;;-0.34;64.78;101643.41;5016642;28;20132;-81
2022/03/08 02:32:59;;;;;;;12.70;9.32;;;;;;;-0.21;64.11;101645.47;5016525;28;20053;-81
2022/03/08 02:35:29;;;;;;;17.98;10.05;;;;;;;-0.16;64.59;101644.41;5015167;28;20129;-80
2022/03/08 02:37:58;;;;;;;15.07;10.00;;;;;;;-0.23;64.68;101637.81;5014693;28;20076;-80
2022/03/08 02:40:28;;;;;;;13.73;9.55;;;;;;;-0.21;64.71;101637.75;5014828;28;20045;-81
2022/03/08 02:42:55;;;;;;;13.40;10.10;;;;;;;-0.26;65.13;101629.41;5015615;28;20057;-81
2022/03/08 02:45:22;;;;;;;13.48;9.77;;;;;;;-0.31;65.65;101626.19;5014293;28;20149;-81
2022/03/08 02:47:49;;;;;;;16.70;9.50;;;;;;;-0.23;65.71;101629.28;5014172;28;20055;-78
2022/03/08 02:50:17;;;;;;;13.88;9.77;;;;;;;-0.22;65.88;101630.94;5018331;28;20699;-83
2022/03/08 02:52:46;;;;;;;14.57;9.68;;;;;;;-0.24;65.87;101625.03;5017561;28;20077;-81
2022/03/08 02:55:13;;;;;;;16.30;9.88;;;;;;;-0.23;65.12;101621.56;5015930;28;20050;-81
2022/03/08 02:57:42;;;;;;;14.27;9.98;;;;;;;-0.19;65.41;101626.53;5016877;28;20100;-81
2022/03/08 03:00:16;;;;;;;15.25;9.63;;;;;;;-0.16;65.60;101620.41;5015739;28;20054;-80
2022/03/08 03:02:43;;;;;;;13.88;9.40;;;;;;;-0.11;65.43;101623.63;5017442;28;20109;-79
2022/03/08 03:05:10;;;;;;;12.15;8.80;;;;;;;-0.09;64.88;101614.13;5018679;28;20056;-83
2022/03/08 03:07:37;;;;;;;13.15;9.52;;;;;;;-0.05;64.82;101620.81;5017561;28;20487;-83
2022/03/08 03:10:07;;;;;;;13.93;9.55;;;;;;;-0.07;65.07;101614.88;5016842;28;20081;-82
2022/03/08 03:12:33;;;;;;;12.88;9.15;;;;;;;-0.09;65.06;101614.13;5016094;28;20048;-81
2022/03/08 03:15:02;;;;;;;11.82;8.50;;;;;;;-0.16;64.92;101618.69;5016697;28;20085;-82
2022/03/08 03:17:29;;;;;;;12.85;8.73;;;;;;;-0.03;64.79;101621.59;5015773;28;20233;-83
2022/03/08 03:19:56;;;;;;;11.57;8.55;;;;;;;-0.10;64.58;101612.44;5016303;28;20058;-82
2022/03/08 03:22:22;;;;;;;12.18;8.63;;;;;;;-0.09;64.36;101607.25;5015943;28;20137;-82
2022/03/08 03:24:49;;;;;;;13.35;8.23;;;;;;;-0.07;64.42;101620.03;5017857;28;20049;-82
2022/03/08 03:27:16;;;;;;;14.77;9.43;;;;;;;0.04;63.84;101607.53;5040170;23;20077;-86
2022/03/08 03:29:42;;;;;;;12.05;9.25;;;;;;;0.06;64.23;101610.88;5037599;28;20076;-86
2022/03/08 03:32:10;;;;;;;13.18;8.88;;;;;;;0.09;63.39;101609.91;5019819;28;20065;-87
2022/03/08 03:34:37;;;;;;;12.75;8.50;;;;;;;0.04;63.83;101609.28;5018273;28;20123;-86
2022/03/08 03:37:04;;;;;;;13.90;8.63;;;;;;;0.15;62.97;101607.91;5017560;28;20049;-86
2022/03/08 03:39:31;;;;;;;10.95;8.18;;;;;;;0.17;63.79;101613.84;5019382;28;20085;-84
2022/03/08 03:41:58;;;;;;;11.30;7.95;;;;;;;0.14;63.41;101621.69;5020411;28;20109;-86
2022/03/08 03:44:24;;;;;;;12.32;8.65;;;;;;;0.22;62.71;101624.78;5032557;28;20057;-85
2022/03/08 03:46:51;;;;;;;11.25;8.35;;;;;;;0.16;63.58;101614.75;5022584;28;20105;-83
2022/03/08 03:49:19;;;;;;;13.55;8.48;;;;;;;0.07;63.70;101615.13;5017954;28;20137;-83
2022/03/08 03:51:47;;;;;;;13.70;8.98;;;;;;;0.07;63.81;101619.44;5021602;28;20078;-85
2022/03/08 03:54:13;;;;;;;12.52;9.02;;;;;;;0.06;63.82;101623.75;5017691;28;20098;-85
2022/03/08 03:56:40;;;;;;;12.23;7.88;;;;;;;0.06;64.07;101617.75;5018102;28;20161;-85
2022/03/08 03:59:06;;;;;;;12.35;8.85;;;;;;;0.09;63.75;101617.63;5018029;28;20081;-86
2022/03/08 04:01:33;;;;;;;15.05;8.63;;;;;;;0.07;63.66;101620.28;5020237;28;20061;-85
2022/03/08 04:04:00;;;;;;;13.35;8.55;;;;;;;0.14;63.85;101616.53;5018125;28;20114;-83
2022/03/08 04:06:28;;;;;;;13.00;8.93;;;;;;;0.06;63.73;101607.47;5016977;28;20085;-83
2022/03/08 04:08:54;;;;;;;12.90;8.75;;;;;;;0.03;64.37;101610.16;5018498;28;20081;-83
2022/03/08 04:11:21;;;;;;;13.85;9.32;;;;;;;0.02;64.09;101609.34;5019964;28;20137;-83
2022/03/08 04:13:48;;;;;;;15.52;9.10;;;;;;;0.07;63.36;101602.25;5019771;28;20077;-83
2022/03/08 04:16:14;;;;;;;13.65;10.00;;;;;;;0.05;63.68;101601.47;5019326;28;20480;-83
2022/03/08 04:18:41;;;;;;;18.58;10.05;;;;;;;-0.02;64.01;101594.94;5019157;28;20137;-83
2022/03/08 04:21:07;;;;;;;14.93;9.15;;;;;;;0.01;64.29;101597.38;5029301;28;20453;-84
2022/03/08 04:23:35;;;;;;;14.25;9.35;;;;;;;-0.10;64.08;101594.44;5024382;28;20088;-84
2022/03/08 04:26:02;;;;;;;12.43;9.07;;;;;;;-0.13;64.78;101594.56;5029288;28;20114;-83
2022/03/08 04:28:29;;;;;;;15.32;10.10;;;;;;;-0.25;65.72;101592.50;5037871;28;20046;-83
2022/03/08 04:30:55;;;;;;;14.15;10.00;;;;;;;-0.24;65.90;101589.84;5043744;28;20062;-83
2022/03/08 04:33:22;;;;;;;14.23;9.80;;;;;;;-0.25;65.49;101583.03;5049478;28;20044;-83
2022/03/08 04:35:49;;;;;;;12.07;8.93;;;;;;;-0.22;65.18;101587.22;5055822;28;20064;-82
2022/03/08 04:38:16;;;;;;;13.65;9.10;;;;;;;-0.21;65.44;101578.59;5043315;28;20073;-84
2022/03/08 04:40:44;;;;;;;13.80;9.13;;;;;;;-0.17;64.96;101586.13;5044349;28;20080;-82
2022/03/08 04:43:11;;;;;;;13.77;8.95;;;;;;;-0.22;65.24;101576.94;5053151;28;20049;-83
2022/03/08 04:45:39;;;;;;;13.27;8.75;;;;;;;-0.26;65.46;101571.06;5045999;28;20113;-85
2022/03/08 04:48:06;;;;;;;13.50;9.32;;;;;;;-0.22;65.50;101566.66;5044816;28;20060;-83
2022/03/08 04:50:33;;;;;;;17.38;9.35;;;;;;;-0.14;64.90;101575.72;5043387;28;20095;-84
2022/03/08 04:52:59;;;;;;;13.43;9.77;;;;;;;-0.13;65.08;101576.56;5043974;28;20132;-83
2022/03/08 04:55:26;;;;;;;12.82;9.30;;;;;;;-0.11;64.66;101575.59;5043955;28;20479;-84
2022/03/08 04:57:54;;;;;;;16.10;9.93;;;;;;;-0.11;64.23;101577.31;5044513;28;20084;-84
2022/03/08 05:00:20;;;;;;;13.70;9.55;;;;;;;-0.12;64.33;101575.66;5044262;28;20065;-85
2022/03/08 05:02:47;;;;;;;13.93;9.23;;;;;;;-0.02;64.33;101585.50;5043576;28;20049;-85
2022/03/08 05:05:15;;;;;;;14.43;9.82;;;;;;;-0.12;64.39;101585.94;5044573;28;20099;-84
2022/03/08 05:07:42;;;;;;;15.80;8.85;;;;;;;-0.17;65.00;101585.28;5045464;28;20076;-85
2022/03/08 05:10:13;;;;;;;13.27;9.40;;;;;;;-0.18;64.68;101581.88;5043852;28;20060;-85
2022/03/08 05:12:40;;;;;;;12.65;9.07;;;;;;;-0.20;64.80;101585.44;5044549;28;20049;-85
2022/03/08 05:15:11;;;;;;;15.57;9.50;;;;;;;-0.22;65.09;101576.94;5043955;28;20057;-85
2022/03/08 05:17:37;;;;;;;13.48;8.93;;;;;;;-0.24;65.02;101589.03;5042765;28;20075;-86
2022/03/08 05:20:05;;;;;;;13.80;9.60;;;;;;;-0.26;65.15;101577.97;5044035;28;20069;-84
2022/03/08 05:22:32;;;;;;;14.30;9.25;;;;;;;-0.23;65.05;101577.84;5045396;28;20104;-85
2022/03/08 05:24:59;;;;;;;12.23;9.20;;;;;;;-0.21;65.24;101579.44;5042530;28;20610;-84
2022/03/08 05:27:26;;;;;;;14.80;9.93;;;;;;;-0.26;64.04;101577.97;5042514;28;20084;-84
2022/03/08 05:29:52;;;;;;;14.48;9.05;;;;;;;-0.09;63.79;101585.81;5042222;28;20499;-86
2022/03/08 05:32:20;;;;;;;13.73;9.68;;;;;;;-0.10;63.84;101586.72;5043050;28;20045;-81
2022/03/08 05:34:47;;;;;;;13.52;9.40;;;;;;;0.04;62.78;101580.97;5041850;28;20068;-85
2022/03/08 05:37:14;;;;;;;12.77;9.73;;;;;;;-0.03;63.17;101578.69;5045464;28;20045;-85
2022/03/08 05:39:41;;;;;;;15.05;9.90;;;;;;;-0.07;63.07;101574.56;5045012;28;20046;-86
2022/03/08 05:42:08;;;;;;;16.17;9.10;;;;;;;-0.13;63.32;101581.69;5046853;28;20072;-84
2022/03/08 05:44:34;;;;;;;16.23;9.38;;;;;;;-0.18;63.76;101563.03;5043037;28;20104;-84
2022/03/08 05:47:01;;;;;;;15.00;9.10;;;;;;;-0.13;63.71;101568.84;5044551;28;20049;-84
2022/03/08 05:49:29;;;;;;;17.15;10.15;;;;;;;-0.11;63.38;101585.88;5048086;28;20083;-84
2022/03/08 05:51:56;;;;;;;13.10;9.63;;;;;;;-0.06;63.11;101585.69;5049796;28;20049;-84
2022/03/08 05:54:22;;;;;;;17.02;9.20;;;;;;;-0.08;63.37;101588.31;5043403;28;20081;-84
2022/03/08 05:56:49;;;;;;;15.95;8.90;;;;;;;-0.03;63.01;101594.13;5041658;28;20053;-83
2022/03/08 05:59:16;;;;;;;14.13;9.57;;;;;;;-0.08;63.97;101593.47;5041941;28;20076;-83
2022/03/08 06:01:42;;;;;;;17.10;9.90;;;;;;;-0.06;63.08;101590.84;5041913;28;20136;-83
2022/03/08 06:04:09;;;;;;;15.57;10.35;;;;;;;-0.07;63.44;101604.59;5041505;28;20081;-87
2022/03/08 06:06:37;;;;;;;14.73;9.48;;;;;;;-0.07;63.58;101595.16;5044577;28;20076;-84
2022/03/08 06:09:04;;;;;;;15.15;9.82;;;;;;;-0.09;63.50;101599.50;5039958;28;20464;-85
2022/03/08 06:11:31;;;;;;;15.38;9.80;;;;;;;-0.10;63.05;101591.88;5041781;28;20057;-85
2022/03/08 06:13:59;;;;;;;22.02;9.13;;;;;;;-0.04;63.32;101607.03;5042582;28;20128;-86
2022/03/08 06:16:25;;;;;;;19.25;9.77;;;;;;;0.00;62.77;101604.25;5041701;28;20052;-84
2022/03/08 06:18:55;;;;;;;17.63;9.80;;;;;;;0.01;62.45;101605.09;5040602;28;20128;-84
2022/03/08 06:21:21;;;;;;;13.55;9.63;;;;;;;0.04;62.97;101607.53;5041362;28;20046;-84
2022/03/08 06:23:50;;;;;;;21.85;10.20;;;;;;;0.01;63.15;101610.22;5042919;28;20117;-85
2022/03/08 06:26:17;;;;;;;16.48;9.80;;;;;;;0.01;63.38;101612.81;5041052;28;20073;-84
2022/03/08 06:28:44;;;;;;;17.25;10.00;;;;;;;0.09;63.30;101608.19;5038946;28;20085;-85
2022/03/08 06:31:12;;;;;;;17.73;10.18;;;;;;;-0.05;63.33;101595.91;5036911;28;20080;-86
2022/03/08 06:33:42;;;;;;;14.90;9.88;;;;;;;0.03;63.15;101613.56;5039721;28;20056;-86
2022/03/08 06:36:11;;;;;;;15.32;10.55;;;;;;;-0.03;63.58;101608.72;5040223;28;20106;-85
2022/03/08 06:38:44;;;;;;;14.10;10.13;;;;;;;-0.06;63.62;101598.56;5038525;28;20080;-85
2022/03/08 06:41:17;;;;;;;16.63;9.75;;;;;;;0.13;62.92;101604.56;5031481;28;20061;-86
2022/03/08 06:43:44;;;;;;;14.88;9.82;;;;;;;0.60;61.42;101604.22;5021734;28;20058;-84
2022/03/08 06:46:17;;;;;;;15.73;10.07;;;;;;;1.08;59.67;101595.16;5019289;28;20046;-84
2022/03/08 06:48:44;;;;;;;17.30;9.85;;;;;;;1.39;58.54;101595.41;5019075;28;20096;-83
2022/03/08 06:51:11;;;;;;;13.80;9.45;;;;;;;1.69;57.75;101610.28;5020066;28;20046;-85
2022/03/08 06:53:38;;;;;;;14.88;9.90;;;;;;;1.88;57.17;101603.31;5021729;28;20061;-83
2022/03/08 06:56:05;;;;;;;12.25;9.75;;;;;;;2.17;56.35;101612.16;5017674;28;20046;-83
2022/03/08 06:58:34;;;;;;;16.52;10.25;;;;;;;2.30;55.77;101610.63;5019513;28;20077;-83
2022/03/08 07:01:00;;;;;;;14.45;9.88;;;;;;;2.33;55.16;101608.72;5019127;28;20046;-82
2022/03/08 07:03:27;;;;;;;14.70;10.00;;;;;;;2.39;55.28;101604.94;5023122;28;20074;-83
2022/03/08 07:05:54;;;;;;;15.25;9.65;;;;;;;2.36;54.93;101605.13;5019065;28;20077;-83
2022/03/08 07:08:21;;;;;;;22.67;10.02;;;;;;;2.61;54.15;101597.75;5018578;28;20088;-83
2022/03/08 07:10:51;;;;;;;14.52;9.23;;;;;;;2.89;53.49;101598.84;5019783;28;20050;-82
2022/03/08 07:13:17;;;;;;;12.70;9.57;;;;;;;2.95;52.84;101614.84;5020299;28;20113;-82
2022/03/08 07:15:46;;;;;;;13.82;9.80;;;;;;;3.00;52.40;101612.03;5020104;28;20050;-83
2022/03/08 07:18:13;;;;;;;13.82;9.80;;;;;;;3.00;52.14;101612.88;5019379;28;20113;-83
2022/03/08 07:20:40;;;;;;;12.32;9.05;;;;;;;3.17;51.66;101603.34;5019588;28;20077;-83
2022/03/08 07:23:06;;;;;;;13.85;9.15;;;;;;;3.30;51.30;101612.09;5018640;28;20124;-87
2022/03/08 07:25:34;;;;;;;12.57;9.20;;;;;;;3.20;51.30;101592.84;5018550;28;20085;-83
2022/03/08 07:28:04;;;;;;;18.73;8.57;;;;;;;3.23;50.71;101587.50;5019935;28;20056;-82
2022/03/08 07:30:31;;;;;;;13.43;9.52;;;;;;;3.31;51.34;101611.16;5020629;28;20122;-83
2022/03/08 07:32:59;;;;;;;12.45;9.52;;;;;;;3.30;50.84;101614.69;5020716;28;20049;-83
2022/03/08 07:35:26;;;;;;;11.73;8.85;;;;;;;3.54;50.54;101608.13;5019436;28;20056;-83
2022/03/08 07:37:53;;;;;;;13.38;9.88;;;;;;;3.49;50.36;101610.13;5018776;28;20127;-83
2022/03/08 07:40:19;;;;;;;15.95;9.50;;;;;;;3.65;50.07;101616.13;5019899;28;20506;-83
2022/03/08 07:42:48;;;;;;;18.52;9.75;;;;;;;3.59;49.81;101611.28;5018806;28;20448;-83
2022/03/08 07:45:15;;;;;;;11.77;9.10;;;;;;;3.52;50.36;101615.16;5019504;28;20061;-83
2022/03/08 07:47:41;;;;;;;13.63;10.18;;;;;;;3.58;49.86;101611.38;5019372;28;20117;-83
2022/03/08 07:50:10;;;;;;;15.75;10.02;;;;;;;3.72;49.35;101618.38;5019111;28;20107;-84
2022/03/08 07:52:38;;;;;;;19.42;9.45;;;;;;;3.80;50.21;101616.13;5020293;28;20096;-84
2022/03/08 07:55:06;;;;;;;23.75;9.50;;;;;;;4.05;49.25;101615.56;5020165;28;20049;-84
2022/03/08 07:57:34;;;;;;;14.65;10.05;;;;;;;4.04;48.67;101616.47;5031899;28;20129;-84
2022/03/08 08:00:01;;;;;;;14.65;9.80;;;;;;;4.13;48.94;101613.34;5039134;28;20053;-84
2022/03/08 08:02:28;;;;;;;17.90;9.68;;;;;;;4.06;48.74;101618.06;5039538;28;20137;-83
2022/03/08 08:04:56;;;;;;;16.58;9.93;;;;;;;4.14;48.46;101615.84;5039894;28;20132;-83
2022/03/08 08:07:24;;;;;;;14.52;9.95;;;;;;;3.74;48.95;101626.88;5042101;28;20052;-81
2022/03/08 08:09:50;;;;;;;17.38;8.88;;;;;;;4.22;48.92;101620.59;5048077;28;20144;-82
2022/03/08 08:12:17;;;;;;;14.65;9.77;;;;;;;4.16;48.60;101603.66;5050368;28;20052;-83
2022/03/08 08:14:44;;;;;;;17.90;9.80;;;;;;;3.98;48.71;101608.16;5048174;28;20077;-81
2022/03/08 08:17:10;;;;;;;11.38;9.15;;;;;;;4.13;48.49;101603.00;5049667;28;20077;-82
2022/03/08 08:19:37;;;;;;;14.57;9.70;;;;;;;4.39;48.18;101611.78;5047651;28;20072;-82
2022/03/08 08:22:04;;;;;;;13.25;9.55;;;;;;;4.67;47.67;101604.03;5045414;28;20050;-83
2022/03/08 08:24:32;;;;;;;14.10;9.27;;;;;;;4.57;47.53;101608.09;5048655;28;20088;-83
2022/03/08 08:26:59;;;;;;;12.20;9.60;;;;;;;4.42;48.38;101601.25;5048212;28;20052;-78
2022/03/08 08:29:25;;;;;;;15.10;9.55;;;;;;;4.40;47.12;101603.09;5046544;28;20085;-82
2022/03/08 08:31:52;;;;;;;12.23;9.15;;;;;;;4.80;47.27;101597.13;5044487;28;20145;-83
2022/03/08 08:34:19;;;;;;;17.05;9.45;;;;;;;4.81;47.63;101592.78;5041921;28;20132;-83
2022/03/08 08:36:47;;;;;;;22.38;9.63;;;;;;;4.93;47.37;101598.03;5038598;28;20049;-83
2022/03/08 08:39:14;;;;;;;14.57;9.98;;;;;;;4.94;47.21;101607.47;5038399;28;20470;-83
2022/03/08 08:41:42;;;;;;;13.73;9.15;;;;;;;4.90;46.78;101595.63;5037572;28;20428;-82
2022/03/08 08:44:09;;;;;;;13.68;9.90;;;;;;;4.88;47.41;101601.84;5038872;28;20133;-83
2022/03/08 08:46:36;;;;;;;12.15;9.65;;;;;;;5.22;46.11;101603.97;5041162;28;20080;-83
2022/03/08 08:49:03;;;;;;;12.68;9.93;;;;;;;4.94;46.70;101604.88;5037856;28;20054;-83
2022/03/08 08:51:30;;;;;;;12.45;8.85;;;;;;;5.13;46.46;101598.53;5038668;28;20455;-83
2022/03/08 08:53:57;;;;;;;17.83;9.15;;;;;;;5.34;47.51;101597.16;5038409;28;20523;-84
2022/03/08 08:56:24;;;;;;;17.02;10.73;;;;;;;5.55;46.35;101590.59;5039439;28;20108;-83
2022/03/08 08:58:52;;;;;;;13.35;9.30;;;;;;;5.02;46.33;101601.81;5039649;28;20053;-83
2022/03/08 09:01:19;;;;;;;17.70;9.43;;;;;;;5.36;45.70;101590.09;5040602;28;20054;-83
2022/03/08 09:03:45;;;;;;;16.25;9.75;;;;;;;5.15;46.81;101589.75;5040910;28;20057;-83
2022/03/08 09:06:12;;;;;;;15.35;9.48;;;;;;;5.29;46.06;101578.44;5040977;28;20105;-84
2022/03/08 09:08:39;;;;;;;15.23;9.35;;;;;;;5.31;45.49;101584.38;5041200;28;20049;-83
2022/03/08 09:11:08;;;;;;;27.63;9.30;;;;;;;5.29;45.48;101571.50;5040775;28;20481;-83
2022/03/08 09:13:35;;;;;;;16.17;9.02;;;;;;;5.39;45.78;101565.72;5041302;28;20119;-83
2022/03/08 09:16:03;;;;;;;15.30;9.43;;;;;;;5.60;46.22;101567.75;5040472;28;20101;-83
2022/03/08 09:18:29;;;;;;;18.73;9.60;;;;;;;5.70;45.39;101564.53;5040519;28;20054;-82
2022/03/08 09:20:56;;;;;;;10.50;8.65;;;;;;;5.86;45.65;101568.59;5044353;28;20140;-84
2022/03/08 09:23:24;;;;;;;17.05;8.65;;;;;;;5.67;46.03;101555.19;5041031;28;20068;-84
2022/03/08 09:25:51;;;;;;;16.05;8.88;;;;;;;5.50;45.02;101561.50;5040104;28;20077;-82
2022/03/08 09:28:18;;;;;;;16.60;9.07;;;;;;;5.55;45.04;101556.00;5059513;23;20049;-81
2022/03/08 09:30:46;;;;;;;13.00;8.93;;;;;;;5.66;44.49;101556.97;5055666;28;20148;-81
2022/03/08 09:33:14;;;;;;;14.10;8.60;;;;;;;5.73;44.89;101559.13;5063374;28;20053;-80
2022/03/08 09:35:41;;;;;;;10.63;7.97;;;;;;;5.89;44.54;101563.25;5063184;28;20076;-80
2022/03/08 09:38:11;;;;;;;11.63;8.35;;;;;;;5.86;43.75;101563.41;5064179;28;20087;-80
2022/03/08 09:40:38;;;;;;;12.70;8.43;;;;;;;6.14;44.26;101562.41;5065162;28;20088;-82
2022/03/08 09:43:05;;;;;;;10.68;7.75;;;;;;;6.09;43.77;101554.09;5064428;28;20091;-81
2022/03/08 09:45:32;;;;;;;11.90;8.10;;;;;;;6.23;44.46;101550.53;5065976;28;20083;-81
2022/03/08 09:47:59;;;;;;;10.65;8.57;;;;;;;6.32;43.33;101561.13;5064976;28;20084;-81
2022/03/08 09:50:28;;;;;;;9.95;7.68;;;;;;;6.36;42.62;101534.94;5064215;28;20076;-84
2022/03/08 09:52:57;;;;;;;12.48;7.97;;;;;;;6.36;43.02;101555.72;5063575;28;20049;-82
2022/03/08 09:55:25;;;;;;;11.73;8.10;;;;;;;6.57;42.82;101551.66;5064883;28;20171;-81
2022/03/08 09:57:53;;;;;;;12.73;8.60;;;;;;;6.46;42.12;101557.59;5063544;28;20104;-81
2022/03/08 10:00:21;;;;;;;17.58;8.27;;;;;;;6.65;41.91;101550.13;5053318;28;20045;-81
2022/03/08 10:02:50;;;;;;;17.15;7.90;;;;;;;6.79;41.08;101541.38;5050207;28;20045;-82
2022/03/08 10:05:21;;;;;;;21.38;8.02;;;;;;;6.76;40.52;101541.59;5048790;28;20092;-82
2022/03/08 10:08:19;;;;;;;18.77;7.13;;;;;;;6.66;40.70;101535.38;5041250;28;20053;-80
2022/03/08 10:10:47;;;;;;;19.77;7.53;;;;;;;6.63;40.65;101514.78;5041445;28;20071;-81
2022/03/08 10:13:14;;;;;;;10.65;7.82;;;;;;;6.72;40.27;101511.53;5042772;28;20085;-80
2022/03/08 10:15:42;;;;;;;17.00;7.43;;;;;;;6.91;40.78;101506.69;5043668;28;20204;-81
2022/03/08 10:18:08;;;;;;;8.70;7.38;;;;;;;6.91;40.07;101511.88;5041284;28;20059;-80
2022/03/08 10:20:36;;;;;;;14.45;7.25;;;;;;;7.15;39.81;101516.22;5041018;28;20133;-81
2022/03/08 10:23:11;;;;;;;27.10;7.95;;;;;;;6.89;39.23;101505.94;5040151;28;20045;-82
2022/03/08 10:25:41;;;;;;;17.55;8.95;;;;;;;7.04;39.16;101511.81;5040437;28;20435;-80
2022/03/08 10:28:08;;;;;;;27.30;8.48;;;;;;;6.99;39.02;101519.97;5046869;28;20203;-80
2022/03/08 10:30:53;;;;;;;9.80;6.90;;;;;;;7.25;39.25;101517.22;5044353;28;20053;-79
2022/03/08 10:33:22;;;;;;;21.20;7.80;;;;;;;7.52;38.57;101514.34;5040459;28;20053;-79
2022/03/08 10:35:54;;;;;;;13.50;7.72;;;;;;;7.39;38.89;101498.81;5038318;28;20112;-80
2022/03/08 10:38:22;;;;;;;14.05;7.95;;;;;;;7.36;38.77;101503.41;5039504;28;20088;-81
2022/03/08 10:40:49;;;;;;;73.57;11.38;;;;;;;7.25;37.96;101499.00;5040613;28;20135;-81
2022/03/08 10:43:18;;;;;;;20.63;7.80;;;;;;;7.20;37.95;101524.53;5039006;28;20073;-81
2022/03/08 10:45:47;;;;;;;24.73;9.63;;;;;;;7.16;38.00;101504.88;5039100;28;20085;-80
2022/03/08 10:48:14;;;;;;;17.35;7.88;;;;;;;7.48;37.82;101487.72;5036438;28;20049;-82
2022/03/08 10:50:42;;;;;;;14.13;7.50;;;;;;;7.44;38.13;101488.88;5040075;28;20140;-81
2022/03/08 10:53:11;;;;;;;16.40;7.50;;;;;;;7.61;37.59;101493.63;5037261;28;20049;-81
2022/03/08 10:55:44;;;;;;;12.13;7.70;;;;;;;7.77;38.51;101492.47;5039441;28;20132;-81
2022/03/08 10:58:12;;;;;;;13.80;8.27;;;;;;;7.61;38.33;101501.44;5037079;28;20142;-81
2022/03/08 11:00:40;;;;;;;15.95;7.45;;;;;;;7.75;38.14;101495.19;5046294;28;20507;-81
2022/03/08 11:03:12;;;;;;;9.27;7.22;;;;;;;7.74;38.47;101495.31;5061751;28;20088;-81
2022/03/08 11:05:41;;;;;;;22.23;7.70;;;;;;;7.83;37.96;101489.41;5059192;28;20055;-80
2022/03/08 11:08:09;;;;;;;11.40;7.32;;;;;;;7.91;38.19;101485.28;5060664;28;20076;-81
2022/03/08 11:10:36;;;;;;;9.90;7.57;;;;;;;8.04;37.50;101481.69;5059703;28;20148;-81
2022/03/08 11:13:05;;;;;;;11.88;7.97;;;;;;;8.15;38.29;101474.69;5058598;28;20109;-81
2022/03/08 11:15:35;;;;;;;13.95;7.50;;;;;;;7.90;38.24;101474.97;5060926;28;20088;-82
2022/03/08 11:18:03;;;;;;;19.15;8.82;;;;;;;8.06;38.21;101462.38;5060297;28;20120;-81
2022/03/08 11:20:31;;;;;;;13.82;7.55;;;;;;;8.10;38.27;101466.41;5059669;28;20057;-82
2022/03/08 11:22:59;;;;;;;15.35;7.95;;;;;;;8.07;37.80;101460.59;5058689;28;20423;-80